createdAt,value
2023-05-20T00:14:28.579Z,29.50
2023-05-20T00:16:56.774Z,30.40
2023-05-20T00:19:25.113Z,34.20
2023-05-20T00:21:57.931Z,28.40
2023-05-20T00:24:26.016Z,30.50
2023-05-20T00:26:56.228Z,29.50
2023-05-20T00:29:25.185Z,27.80
2023-05-20T00:31:54.071Z,26.40
2023-05-20T00:34:50.560Z,31.00
2023-05-20T00:37:19.566Z,31.30
2023-05-20T00:39:53.985Z,25.60
2023-05-20T01:57:23.992Z,31.40
2023-05-20T01:59:53.591Z,29.70
2023-05-20T02:02:22.812Z,29.60
2023-05-20T02:04:51.570Z,34.30
2023-05-20T02:07:38.559Z,28.70
2023-05-20T02:10:06.460Z,35.70
2023-05-20T02:12:33.618Z,40.60
2023-05-20T02:15:20.817Z,34.50
2023-05-20T02:17:54.664Z,40.30
2023-05-20T05:23:02.859Z,27.50
2023-05-20T05:25:30.268Z,34.00
2023-05-20T05:27:59.200Z,30.70
2023-05-20T05:30:28.393Z,30.80
2023-05-20T05:33:00.327Z,30.80
2023-05-20T05:35:51.240Z,27.70
2023-05-20T05:38:18.176Z,32.10
2023-05-20T05:40:45.111Z,29.90
2023-05-20T05:43:17.125Z,29.60
2023-05-20T05:45:44.898Z,29.60
2023-05-20T05:48:13.705Z,26.90
2023-05-20T05:50:45.781Z,27.00
2023-05-20T06:24:56.380Z,23.60
2023-05-20T06:27:24.291Z,25.50
2023-05-20T06:29:50.926Z,23.40
2023-05-20T06:32:17.923Z,23.80
2023-05-20T06:35:14.869Z,24.80
2023-05-20T06:38:43.860Z,27.00
2023-05-20T06:49:27.618Z,27.70
2023-05-20T06:51:54.779Z,26.50
2023-05-20T06:54:23.317Z,22.90
2023-05-20T06:56:50.292Z,26.70
2023-05-20T06:59:23.992Z,22.80
2023-05-20T07:01:51.249Z,25.10
2023-05-20T07:04:18.293Z,25.00
2023-05-20T07:06:45.152Z,26.70
2023-05-20T07:09:12.071Z,24.80
2023-05-20T07:11:39.277Z,21.80
2023-05-20T07:14:08.534Z,28.20
2023-05-20T07:16:36.376Z,26.20
2023-05-20T07:19:04.791Z,24.10
2023-05-20T07:24:23.975Z,26.00
2023-05-20T07:26:53.162Z,25.80
2023-05-20T07:29:22.204Z,24.70
2023-05-20T07:31:51.538Z,25.60
2023-05-20T07:34:18.440Z,26.70
2023-05-20T07:36:49.102Z,21.80
2023-05-20T07:39:17.008Z,23.30
2023-05-20T07:41:46.614Z,20.30
2023-05-20T07:44:13.854Z,19.20
2023-05-20T07:46:44.422Z,24.40
2023-05-20T07:49:18.332Z,21.10
2023-05-20T07:51:46.501Z,22.00
2023-05-20T07:54:30.585Z,20.10
2023-05-20T07:56:57.551Z,18.90
2023-05-20T07:59:25.106Z,22.10
2023-05-20T08:01:59.091Z,20.80
2023-05-20T08:04:27.783Z,22.00
2023-05-20T08:06:55.455Z,21.30
2023-05-20T08:09:31.155Z,20.90
2023-05-20T08:11:58.584Z,18.70
2023-05-20T08:14:28.224Z,18.50
2023-05-20T08:17:17.412Z,20.40
2023-05-20T08:19:44.454Z,19.70
2023-05-20T08:22:13.857Z,21.80
2023-05-20T08:24:41.430Z,20.30
2023-05-20T08:27:08.552Z,18.00
2023-05-20T08:29:35.542Z,20.80
2023-05-20T08:32:03.781Z,24.40
2023-05-20T08:34:31.913Z,20.00
2023-05-20T08:36:59.252Z,19.10
2023-05-20T08:39:26.936Z,20.10
2023-05-20T08:41:54.278Z,16.20
2023-05-20T08:44:22.141Z,22.40
2023-05-20T08:46:56.550Z,17.50
2023-05-20T08:49:30.363Z,16.60
2023-05-20T08:51:58.286Z,19.10
2023-05-20T08:54:32.838Z,19.40
2023-05-20T08:57:02.123Z,18.70
2023-05-20T09:10:51.715Z,20.30
2023-05-20T09:13:22.295Z,20.00
2023-05-20T09:18:19.616Z,18.90
2023-05-20T09:20:50.247Z,18.40
2023-05-20T09:23:24.443Z,21.60
2023-05-20T09:25:53.438Z,18.00
2023-05-20T09:28:24.468Z,16.20
2023-05-20T09:30:51.255Z,22.50
2023-05-20T09:33:30.014Z,22.50
2023-05-20T09:36:06.749Z,22.00
2023-05-20T09:38:38.314Z,19.80
2023-05-20T09:41:11.428Z,21.50
2023-05-20T09:43:46.306Z,21.00
2023-05-20T09:46:14.381Z,26.30
2023-05-20T09:48:41.075Z,21.70
2023-05-20T09:51:08.335Z,20.60
2023-05-20T09:53:35.355Z,23.60
2023-05-20T09:56:04.858Z,20.30
2023-05-20T09:58:34.405Z,21.50
2023-05-20T10:01:01.196Z,20.40
2023-05-20T10:03:30.355Z,22.50
2023-05-20T10:06:09.279Z,21.10
2023-05-20T10:09:04.251Z,22.00
2023-05-20T10:11:58.073Z,24.60
2023-05-20T10:14:58.082Z,23.30
2023-05-20T10:17:31.714Z,19.30
2023-05-20T10:19:59.188Z,19.90
2023-05-20T10:22:28.389Z,26.60
2023-05-20T10:25:12.341Z,21.90
2023-05-20T10:27:46.560Z,26.20
2023-05-20T10:30:29.646Z,21.60
2023-05-20T10:33:02.224Z,27.10
2023-05-20T10:35:29.293Z,22.00
2023-05-20T10:38:07.945Z,22.10
2023-05-20T10:40:37.245Z,26.00
2023-05-20T10:43:14.108Z,22.00
2023-05-20T10:45:49.069Z,22.80
2023-05-20T10:48:27.390Z,25.50
2023-05-20T10:50:56.580Z,24.30
2023-05-20T10:53:34.030Z,20.80
2023-05-20T10:56:01.916Z,19.90
2023-05-20T10:58:37.279Z,20.80
2023-05-20T11:01:06.753Z,24.50
2023-05-20T11:03:34.923Z,17.50
2023-05-20T11:06:02.003Z,22.20
2023-05-20T11:08:31.100Z,27.30
2023-05-20T11:11:00.632Z,23.20
2023-05-20T11:13:27.673Z,23.60
2023-05-20T11:15:55.439Z,22.80
2023-05-20T11:18:28.874Z,20.20
2023-05-20T11:21:01.488Z,21.10
2023-05-20T11:23:31.434Z,21.20
2023-05-20T11:26:00.962Z,19.90
2023-05-20T11:28:27.712Z,18.00
2023-05-20T11:30:57.016Z,19.00
2023-05-20T11:33:27.711Z,24.60
2023-05-20T11:35:59.064Z,25.50
2023-05-20T11:38:25.887Z,17.20
2023-05-20T11:40:54.205Z,22.40
2023-05-20T11:43:22.881Z,17.30
2023-05-20T11:45:59.289Z,17.70
2023-05-20T11:48:26.678Z,18.80
2023-05-20T11:50:55.032Z,18.30
2023-05-20T11:53:23.284Z,18.50
2023-05-20T11:55:57.740Z,20.60
2023-05-20T11:58:26.519Z,21.10
2023-05-20T12:00:59.479Z,21.90
2023-05-20T12:03:34.540Z,18.60
2023-05-20T12:06:02.534Z,19.80
2023-05-20T12:08:29.088Z,20.20
2023-05-20T12:10:57.799Z,16.60
2023-05-20T12:13:24.216Z,16.10
2023-05-20T12:15:53.125Z,18.60
2023-05-20T12:18:22.163Z,16.90
2023-05-20T12:20:48.782Z,18.20
2023-05-20T12:23:17.687Z,22.40
2023-05-20T12:25:49.163Z,15.50
2023-05-20T12:28:20.521Z,20.20
2023-05-20T12:30:47.035Z,17.10
2023-05-20T12:33:13.431Z,18.00
2023-05-20T12:35:44.108Z,16.80
2023-05-20T12:38:15.619Z,18.80
2023-05-20T12:40:44.322Z,18.50
2023-05-20T12:43:10.751Z,16.80
2023-05-20T12:45:39.835Z,19.10
2023-05-20T12:48:09.262Z,17.90
2023-05-20T12:50:41.137Z,18.50
2023-05-20T12:53:07.846Z,18.30
2023-05-20T12:55:38.080Z,17.30
2023-05-20T12:58:04.639Z,15.50
2023-05-20T13:00:31.299Z,16.40
2023-05-20T13:02:58.138Z,16.80
2023-05-20T13:05:24.714Z,21.30
2023-05-20T13:07:51.513Z,15.40
2023-05-20T13:27:01.463Z,15.40
2023-05-20T13:29:34.199Z,13.00
2023-05-20T13:32:02.344Z,21.40
2023-05-20T13:34:35.651Z,15.10
2023-05-20T13:37:03.655Z,16.30
2023-05-20T13:39:32.131Z,15.30
2023-05-20T13:41:59.984Z,13.40
2023-05-20T13:44:32.557Z,12.50
2023-05-20T13:47:03.200Z,13.20
2023-05-20T13:49:33.705Z,18.40
2023-05-20T13:52:03.910Z,16.50
2023-05-20T13:54:31.917Z,14.20
2023-05-20T13:57:04.888Z,15.70
2023-05-20T13:59:32.769Z,11.80
2023-05-20T14:02:01.168Z,13.70
2023-05-20T14:04:31.909Z,13.40
2023-05-20T14:07:00.444Z,13.70
2023-05-20T14:09:30.651Z,16.40
2023-05-20T14:12:01.334Z,14.70
2023-05-20T14:14:31.572Z,14.40
2023-05-20T14:17:02.054Z,12.60
2023-05-20T14:19:32.375Z,12.30
2023-05-20T14:22:01.296Z,18.40
2023-05-20T14:24:29.440Z,12.50
2023-05-20T14:26:59.864Z,10.40
2023-05-20T14:29:30.488Z,10.50
2023-05-20T14:31:58.436Z,13.20
2023-05-20T14:34:33.525Z,14.60
2023-05-20T14:37:07.505Z,46.70
2023-05-20T14:39:36.591Z,26.50
2023-05-20T14:42:06.905Z,16.20
2023-05-20T14:44:34.995Z,10.70
2023-05-20T14:47:07.971Z,22.50
2023-05-20T14:49:37.976Z,12.60
2023-05-20T14:52:10.503Z,20.40
2023-05-20T14:54:38.352Z,12.40
2023-05-20T14:57:08.739Z,11.50
2023-05-20T14:59:39.186Z,19.00
2023-05-20T15:02:09.524Z,17.70
2023-05-20T15:04:39.979Z,11.00
2023-05-20T15:07:08.156Z,13.80
2023-05-20T15:09:44.068Z,29.40
2023-05-20T15:12:14.186Z,21.80
2023-05-20T15:14:42.067Z,17.10
2023-05-20T15:17:12.913Z,16.70
2023-05-20T15:19:41.933Z,12.30
2023-05-20T15:22:09.884Z,10.90
2023-05-20T15:24:38.160Z,15.00
2023-05-20T15:27:06.490Z,14.40
2023-05-20T15:29:34.442Z,14.30
2023-05-20T15:32:08.282Z,14.00
2023-05-20T15:34:36.173Z,12.50
2023-05-20T15:37:04.178Z,10.80
2023-05-20T15:39:32.375Z,10.00
2023-05-20T15:42:02.214Z,8.80
2023-05-20T15:44:30.158Z,9.50
2023-05-20T15:47:00.616Z,10.00
2023-05-20T15:49:29.003Z,9.50
2023-05-20T15:52:03.761Z,10.10
2023-05-20T15:54:34.560Z,9.50
2023-05-20T15:57:03.469Z,12.20
2023-05-20T15:59:31.532Z,11.90
2023-05-20T16:01:59.620Z,10.20
2023-05-20T16:04:27.634Z,9.90
2023-05-20T16:06:57.902Z,11.50
2023-05-20T16:09:26.079Z,11.50
2023-05-20T16:11:56.476Z,13.40
2023-05-20T16:14:27.610Z,11.70
2023-05-20T16:16:55.709Z,10.40
2023-05-20T16:19:29.077Z,9.10
2023-05-20T16:21:59.905Z,8.50
2023-05-20T16:24:27.722Z,11.70
2023-05-20T16:26:58.144Z,20.70
2023-05-20T16:29:31.054Z,12.20
2023-05-20T16:32:01.399Z,9.30
2023-05-20T16:34:32.612Z,9.70
2023-05-20T16:37:03.010Z,11.40
2023-05-20T16:39:30.945Z,9.80
2023-05-20T16:42:01.612Z,9.00
2023-05-20T16:44:30.029Z,8.50
2023-05-20T16:47:00.524Z,10.00
2023-05-20T16:49:28.520Z,10.80
2023-05-20T16:51:56.494Z,9.80
2023-05-20T16:54:24.480Z,8.80
2023-05-20T16:57:16.007Z,16.10
2023-05-20T16:59:44.046Z,13.90
2023-05-20T17:02:12.824Z,12.30
2023-05-20T17:04:50.293Z,8.90
2023-05-20T17:07:22.456Z,11.00
2023-05-20T17:09:52.708Z,10.20
2023-05-20T17:12:29.434Z,15.10
2023-05-20T17:15:01.837Z,10.50
2023-05-20T17:17:34.159Z,11.80
2023-05-20T17:20:05.409Z,9.60
2023-05-20T17:22:33.602Z,9.00
2023-05-20T17:25:06.606Z,9.40
2023-05-20T17:27:34.753Z,11.20
2023-05-20T17:30:02.807Z,9.00
2023-05-20T17:32:31.309Z,12.90
2023-05-20T17:34:59.329Z,8.40
2023-05-20T17:37:27.635Z,9.30
2023-05-20T17:39:56.189Z,11.50
2023-05-20T17:42:24.532Z,9.50
2023-05-20T17:44:52.918Z,9.80
2023-05-20T17:47:23.616Z,9.20
2023-05-20T17:49:52.188Z,10.30
2023-05-20T17:52:20.644Z,11.20
2023-05-20T17:54:48.829Z,8.80
2023-05-20T17:57:16.944Z,10.50
2023-05-20T17:59:45.598Z,8.90
2023-05-20T18:02:13.876Z,9.50
2023-05-20T18:04:42.305Z,11.70
2023-05-20T18:27:33.247Z,11.60
2023-05-20T18:30:02.275Z,12.30
2023-05-20T18:32:33.096Z,10.80
2023-05-20T18:35:01.017Z,10.50
2023-05-20T18:37:29.160Z,10.00
2023-05-20T18:40:00.074Z,9.80
2023-05-20T18:42:33.056Z,11.40
2023-05-20T18:45:05.866Z,12.90
2023-05-20T18:47:33.936Z,10.70
2023-05-20T18:50:01.842Z,9.30
2023-05-20T18:52:30.133Z,11.70
2023-05-20T18:54:58.141Z,12.70
2023-05-20T18:57:29.556Z,13.10
